Terminal Aerodrome Forecast
Issued by NWS North Platte, NE

Home | Current Version | Previous Version | Graphics & Text | Print | Product List | Glossary On
Versions: 1 2 3 4 5 6 7 8 9 10 11 12 13 14
247
FTUS43 KLBF 241128
TAFVTN
TAF
KVTN 241128Z 2412/2512 22014KT P6SM SCT070 BKN100
      TEMPO 2412/2415 BKN025
     FM241600 25012KT P6SM BKN100
     FM241900 26014G23KT P6SM BKN250
     FM250000 26013G22KT P6SM SCT250
     FM250200 28015G23KT P6SM SKC=

USA.gov is the U.S. government's official web portal to all federal, state and local government web resources and services.